createdAt,value
2022-09-23T00:02:09.527Z,13.90
2022-09-23T00:04:58.934Z,12.80
2022-09-23T00:07:46.705Z,15.70
2022-09-23T00:10:37.619Z,11.87
2022-09-23T00:13:25.940Z,14.10
2022-09-23T00:16:16.358Z,14.03
2022-09-23T00:19:04.728Z,14.07
2022-09-23T00:21:54.002Z,12.43
2022-09-23T00:24:41.494Z,14.07
2022-09-23T00:27:31.001Z,11.37
2022-09-23T00:30:19.146Z,11.97
2022-09-23T00:33:06.806Z,13.17
2022-09-23T00:36:00.551Z,10.20
2022-09-23T00:38:50.197Z,10.57
2022-09-23T00:41:38.277Z,10.67
2022-09-23T00:44:48.052Z,9.17
2022-09-23T00:47:42.846Z,10.57
2022-09-23T00:50:35.384Z,11.43
2022-09-23T00:53:26.961Z,9.10
2022-09-23T00:56:17.055Z,11.03
2022-09-23T00:59:05.774Z,11.10
2022-09-23T01:01:55.608Z,9.83
2022-09-23T01:04:43.917Z,11.27
2022-09-23T01:07:31.659Z,10.50
2022-09-23T01:10:19.737Z,12.13
2022-09-23T01:13:16.711Z,14.83
2022-09-23T01:16:10.142Z,8.53
2022-09-23T01:19:10.550Z,9.23
2022-09-23T01:22:06.083Z,12.27
2022-09-23T01:25:17.314Z,9.53
2022-09-23T01:28:34.400Z,10.30
2022-09-23T01:31:30.057Z,8.20
2022-09-23T01:34:27.395Z,8.77
2022-09-23T01:37:23.364Z,10.60
2022-09-23T01:40:19.465Z,10.83
2022-09-23T01:43:12.779Z,9.83
2022-09-23T01:46:07.280Z,9.00
2022-09-23T01:49:02.247Z,10.23
2022-09-23T01:51:55.187Z,10.43
2022-09-23T01:54:50.505Z,9.73
2022-09-23T01:57:41.738Z,10.13
2022-09-23T02:00:33.206Z,11.07
2022-09-23T02:03:27.502Z,9.47
2022-09-23T02:06:20.963Z,9.43
2022-09-23T02:09:13.251Z,9.97
2022-09-23T02:12:04.926Z,11.77
2022-09-23T02:14:59.688Z,10.63
2022-09-23T02:17:52.107Z,10.63
2022-09-23T02:20:40.759Z,10.17
2022-09-23T02:23:36.340Z,10.50
2022-09-23T02:26:29.598Z,11.70
2022-09-23T02:29:22.651Z,13.07
2022-09-23T02:32:19.109Z,10.77
2022-09-23T02:35:15.665Z,11.20
2022-09-23T02:38:14.152Z,11.47
2022-09-23T02:41:10.331Z,12.73
2022-09-23T02:44:04.895Z,12.03
2022-09-23T02:46:53.282Z,12.20
2022-09-23T02:49:41.716Z,11.63
2022-09-23T02:52:29.825Z,12.63
2022-09-23T02:55:20.356Z,12.30
2022-09-23T02:58:10.333Z,14.10
2022-09-23T03:01:06.737Z,15.67
2022-09-23T03:04:05.209Z,12.83
2022-09-23T03:07:02.346Z,14.97
2022-09-23T03:10:01.484Z,16.93
2022-09-23T03:13:00.240Z,16.93
2022-09-23T03:15:57.395Z,14.87
2022-09-23T03:18:51.432Z,13.93
2022-09-23T03:21:45.035Z,14.03
2022-09-23T03:24:35.045Z,13.83
2022-09-23T03:27:25.934Z,13.23
2022-09-23T03:30:14.464Z,14.03
2022-09-23T03:33:07.463Z,12.73
2022-09-23T03:36:17.048Z,12.63
2022-09-23T03:39:09.467Z,12.87
2022-09-23T03:42:01.417Z,12.90
2022-09-23T03:44:51.549Z,13.37
2022-09-23T03:47:39.601Z,11.63
2022-09-23T03:50:29.622Z,12.03
2022-09-23T03:53:18.405Z,13.07
2022-09-23T03:56:06.574Z,12.73
2022-09-23T03:58:54.261Z,11.67
2022-09-23T04:01:42.095Z,12.80
2022-09-23T04:04:33.832Z,11.97
2022-09-23T04:07:22.853Z,14.90
2022-09-23T04:10:11.832Z,12.73
2022-09-23T04:12:59.526Z,14.47
2022-09-23T04:15:47.609Z,12.10
2022-09-23T04:18:35.644Z,12.87
2022-09-23T04:21:23.515Z,14.27
2022-09-23T04:24:13.379Z,13.63
2022-09-23T04:27:01.519Z,13.33
2022-09-23T04:29:49.241Z,11.93
2022-09-23T04:32:37.077Z,14.30
2022-09-23T04:35:25.022Z,13.67
2022-09-23T04:38:14.360Z,13.47
2022-09-23T04:41:03.361Z,13.03
2022-09-23T04:43:51.162Z,13.97
2022-09-23T04:46:39.335Z,12.83
2022-09-23T04:49:27.413Z,11.63
2022-09-23T04:52:14.798Z,13.13
2022-09-23T04:55:02.623Z,12.50
2022-09-23T04:57:51.513Z,11.60
2022-09-23T05:00:39.330Z,11.77
2022-09-23T05:03:27.046Z,14.53
2022-09-23T05:06:16.345Z,11.60
2022-09-23T05:09:07.106Z,11.30
2022-09-23T05:11:55.297Z,14.17
2022-09-23T05:14:44.620Z,11.93
2022-09-23T05:17:32.513Z,12.30
2022-09-23T05:20:20.795Z,14.47
2022-09-23T05:23:08.560Z,12.60
2022-09-23T05:26:01.237Z,12.87
2022-09-23T05:28:49.567Z,12.27
2022-09-23T05:31:38.863Z,11.97
2022-09-23T05:34:26.282Z,13.57
2022-09-23T05:37:14.120Z,12.70
2022-09-23T05:40:02.681Z,13.13
2022-09-23T05:42:51.478Z,14.23
2022-09-23T05:45:39.359Z,15.00
2022-09-23T05:48:29.147Z,18.10
2022-09-23T05:51:18.569Z,17.17
2022-09-23T05:54:07.166Z,17.37
2022-09-23T05:56:55.133Z,17.27
2022-09-23T05:59:47.696Z,18.17
2022-09-23T06:02:35.351Z,21.30
2022-09-23T06:05:24.604Z,21.77
2022-09-23T06:08:13.204Z,24.87
2022-09-23T06:11:07.347Z,21.70
2022-09-23T06:14:01.067Z,22.87
2022-09-23T06:16:48.833Z,23.47
2022-09-23T06:19:36.428Z,27.63
2022-09-23T06:22:27.238Z,31.00
2022-09-23T06:25:15.251Z,30.03
2022-09-23T06:28:03.698Z,32.63
2022-09-23T06:30:51.845Z,34.00
2022-09-23T06:33:39.557Z,36.93
2022-09-23T06:36:39.997Z,34.13
2022-09-23T06:39:31.151Z,30.90
2022-09-23T06:42:19.030Z,34.00
2022-09-23T06:45:07.599Z,30.20
2022-09-23T06:47:57.312Z,27.67
2022-09-23T06:50:45.172Z,29.13
2022-09-23T06:53:33.546Z,33.30
2022-09-23T06:56:23.842Z,37.20
2022-09-23T06:59:13.227Z,31.37
2022-09-23T07:02:01.115Z,28.13
2022-09-23T07:04:48.938Z,28.73
2022-09-23T07:07:37.525Z,30.17
2022-09-23T07:10:25.311Z,26.27
2022-09-23T07:13:16.405Z,23.83
2022-09-23T07:16:04.740Z,24.30
2022-09-23T07:18:53.617Z,19.87
2022-09-23T07:21:41.863Z,19.90
2022-09-23T07:24:29.805Z,21.48
2022-09-23T07:27:19.474Z,22.02
2022-09-23T07:30:18.261Z,19.92
2022-09-23T07:33:26.299Z,20.98
2022-09-23T07:36:20.149Z,17.38
2022-09-23T07:39:08.734Z,15.52
2022-09-23T07:41:56.945Z,17.02
2022-09-23T07:44:46.157Z,15.70
2022-09-23T07:47:35.137Z,16.70
2022-09-23T07:50:22.871Z,15.30
2022-09-23T07:53:10.577Z,16.02
2022-09-23T07:55:59.519Z,14.60
2022-09-23T07:59:00.103Z,15.85
2022-09-23T08:01:50.708Z,14.85
2022-09-23T08:04:40.682Z,11.80
2022-09-23T08:07:28.345Z,10.30
2022-09-23T08:10:21.263Z,11.15
2022-09-23T08:13:08.856Z,10.32
2022-09-23T08:15:56.616Z,11.95
2022-09-23T08:18:46.049Z,10.00
2022-09-23T08:21:35.644Z,12.18
2022-09-23T08:24:24.742Z,11.48
2022-09-23T08:27:12.791Z,11.40
2022-09-23T08:30:00.459Z,11.45
2022-09-23T08:32:51.723Z,11.40
2022-09-23T08:35:39.526Z,10.07
2022-09-23T08:38:28.978Z,11.95
2022-09-23T08:41:23.395Z,13.38
2022-09-23T08:44:17.783Z,12.60
2022-09-23T08:47:12.108Z,13.93
2022-09-23T08:50:04.298Z,11.05
2022-09-23T08:52:55.072Z,10.50
2022-09-23T08:55:48.011Z,10.15
2022-09-23T08:58:45.593Z,10.20
2022-09-23T09:01:40.916Z,8.75
2022-09-23T09:04:39.992Z,8.35
2022-09-23T09:07:36.696Z,7.88
2022-09-23T09:10:28.425Z,6.95
2022-09-23T09:13:30.801Z,6.43
2022-09-23T09:16:58.991Z,6.32
2022-09-23T09:20:08.879Z,8.05
2022-09-23T09:22:59.977Z,6.90
2022-09-23T09:25:50.562Z,7.20
2022-09-23T09:28:42.876Z,7.00
2022-09-23T09:31:34.576Z,6.43
2022-09-23T09:34:30.318Z,6.25
2022-09-23T09:37:25.782Z,7.82
2022-09-23T09:40:15.357Z,6.78
2022-09-23T09:43:04.706Z,6.20
2022-09-23T09:46:08.423Z,6.75
2022-09-23T09:49:00.571Z,5.15
2022-09-23T09:51:48.601Z,4.32
2022-09-23T09:54:36.105Z,7.72
2022-09-23T09:57:35.129Z,4.70
2022-09-23T10:00:46.079Z,4.20
2022-09-23T10:03:42.550Z,3.78
2022-09-23T10:06:32.629Z,3.40
2022-09-23T10:09:21.701Z,4.18
2022-09-23T10:12:15.803Z,3.70
2022-09-23T10:15:03.897Z,3.92
2022-09-23T10:17:53.055Z,4.88
2022-09-23T10:20:42.010Z,3.72
2022-09-23T10:23:33.674Z,3.00
2022-09-23T10:26:31.034Z,3.78
2022-09-23T10:29:26.037Z,3.90
2022-09-23T10:32:29.163Z,2.75
2022-09-23T10:35:18.601Z,2.88
2022-09-23T10:38:11.357Z,2.00
2022-09-23T10:41:16.555Z,2.42
2022-09-23T10:44:39.633Z,2.30
2022-09-23T10:47:35.392Z,3.33
2022-09-23T10:50:37.287Z,4.72
2022-09-23T10:53:38.189Z,2.72
2022-09-23T10:56:35.016Z,3.88
2022-09-23T10:59:57.020Z,3.08
2022-09-23T11:03:09.644Z,2.75
2022-09-23T11:06:11.848Z,1.85
2022-09-23T11:09:17.516Z,2.70
2022-09-23T11:12:17.797Z,1.92
2022-09-23T11:15:24.844Z,1.83
2022-09-23T11:18:46.105Z,2.00
2022-09-23T11:21:58.837Z,2.03
2022-09-23T11:25:08.836Z,6.70
2022-09-23T11:28:17.773Z,2.70
2022-09-23T11:31:19.509Z,2.53
2022-09-23T11:34:34.215Z,2.03
2022-09-23T11:37:25.539Z,3.20
2022-09-23T11:40:21.481Z,2.00
2022-09-23T11:43:18.646Z,2.50
2022-09-23T11:46:14.270Z,2.35
2022-09-23T11:49:09.246Z,2.30
2022-09-23T11:52:04.574Z,2.45
2022-09-23T11:54:56.876Z,4.18
2022-09-23T11:57:50.226Z,3.08
2022-09-23T12:00:41.204Z,2.83
2022-09-23T12:03:44.379Z,2.55
2022-09-23T12:06:40.030Z,3.25
2022-09-23T12:09:56.504Z,1.92
2022-09-23T12:12:53.033Z,2.17
2022-09-23T12:15:58.565Z,1.70
2022-09-23T12:19:01.073Z,1.92
2022-09-23T12:22:08.068Z,2.25
2022-09-23T12:25:08.083Z,2.13
2022-09-23T12:28:02.925Z,1.30
2022-09-23T12:30:52.653Z,1.15
2022-09-23T12:33:41.102Z,1.67
2022-09-23T12:36:34.845Z,1.67
2022-09-23T12:39:31.022Z,1.00
2022-09-23T12:42:21.802Z,1.33
2022-09-23T12:45:36.111Z,1.63
2022-09-23T12:48:46.101Z,2.38
2022-09-23T12:51:35.615Z,1.13
2022-09-23T12:54:25.808Z,1.33
2022-09-23T12:57:15.006Z,1.10
2022-09-23T13:00:22.733Z,1.35
2022-09-23T13:03:46.317Z,0.88
2022-09-23T13:06:39.665Z,1.35
2022-09-23T13:09:32.233Z,1.50
2022-09-23T13:12:24.799Z,1.20
2022-09-23T13:15:24.162Z,0.98
2022-09-23T13:18:59.935Z,0.77
2022-09-23T13:22:06.813Z,0.60
2022-09-23T13:24:55.560Z,0.55
2022-09-23T13:27:48.847Z,0.70
2022-09-23T13:30:36.532Z,0.82
2022-09-23T13:33:32.754Z,1.58
2022-09-23T13:36:21.709Z,0.70
2022-09-23T13:39:17.247Z,0.93
2022-09-23T13:42:06.023Z,2.45
2022-09-23T13:44:57.885Z,1.55
2022-09-23T13:47:47.257Z,1.88
2022-09-23T13:50:39.032Z,1.35
2022-09-23T13:53:29.269Z,1.33
2022-09-23T13:56:18.338Z,2.67
2022-09-23T13:59:25.390Z,0.80
2022-09-23T14:02:15.328Z,0.70
2022-09-23T14:05:12.547Z,0.75
2022-09-23T14:08:01.276Z,1.65
2022-09-23T14:10:50.268Z,1.00
2022-09-23T14:13:43.983Z,1.58
2022-09-23T14:16:32.114Z,1.67
2022-09-23T14:19:22.280Z,0.95
2022-09-23T14:22:24.714Z,1.02
2022-09-23T14:25:15.696Z,0.75
2022-09-23T14:28:03.813Z,0.82
2022-09-23T14:30:57.506Z,0.65
2022-09-23T14:33:45.061Z,0.70
2022-09-23T14:36:54.427Z,1.00
2022-09-23T14:39:42.100Z,1.10
2022-09-23T14:42:33.095Z,1.60
2022-09-23T14:45:23.845Z,2.83
2022-09-23T14:48:18.658Z,1.10
2022-09-23T14:51:14.643Z,1.73
2022-09-23T14:54:24.527Z,0.90
2022-09-23T14:57:30.442Z,0.75
2022-09-23T15:00:21.183Z,0.70
2022-09-23T15:03:17.329Z,0.88
2022-09-23T15:06:09.254Z,3.22
2022-09-23T15:08:57.594Z,0.95
2022-09-23T15:11:45.465Z,1.55
2022-09-23T15:14:39.396Z,0.73
2022-09-23T15:17:34.157Z,1.15
2022-09-23T15:20:26.856Z,2.03
2022-09-23T15:23:34.283Z,1.00
2022-09-23T15:26:23.946Z,0.80
2022-09-23T15:29:11.555Z,1.77
2022-09-23T15:32:00.372Z,1.85
2022-09-23T15:34:51.298Z,1.23
2022-09-23T15:37:42.481Z,2.78
2022-09-23T15:40:32.566Z,1.52
2022-09-23T15:43:23.323Z,0.95
2022-09-23T15:46:18.189Z,0.90
2022-09-23T15:49:07.996Z,1.63
2022-09-23T15:51:59.158Z,4.30
2022-09-23T15:54:48.025Z,2.28
2022-09-23T15:57:35.809Z,3.70
2022-09-23T16:00:24.290Z,2.50
2022-09-23T16:03:15.746Z,2.90
2022-09-23T16:06:07.372Z,4.50
2022-09-23T16:08:55.166Z,8.30
2022-09-23T16:11:47.403Z,7.93
2022-09-23T16:14:35.236Z,9.65
2022-09-23T16:17:23.298Z,10.25
2022-09-23T16:20:11.765Z,10.00
2022-09-23T16:23:02.830Z,9.35
2022-09-23T16:25:51.074Z,9.10
2022-09-23T16:28:40.526Z,7.60
2022-09-23T16:31:29.685Z,7.07
2022-09-23T16:34:17.564Z,6.60
2022-09-23T16:37:05.703Z,6.93
2022-09-23T16:39:54.437Z,5.68
2022-09-23T16:42:42.210Z,5.38
2022-09-23T16:45:31.789Z,6.00
2022-09-23T16:48:19.889Z,7.82
2022-09-23T16:51:07.958Z,6.60
2022-09-23T16:54:01.008Z,7.40
2022-09-23T16:56:48.660Z,6.13
2022-09-23T16:59:50.030Z,7.82
2022-09-23T17:02:56.758Z,7.53
2022-09-23T17:05:46.688Z,6.05
2022-09-23T17:08:35.000Z,6.32
2022-09-23T17:11:23.549Z,6.03
2022-09-23T17:14:11.463Z,5.13
2022-09-23T17:16:59.742Z,4.93
2022-09-23T17:19:48.939Z,4.60
2022-09-23T17:22:36.565Z,4.30
2022-09-23T17:25:24.701Z,4.03
2022-09-23T17:28:12.559Z,4.05
2022-09-23T17:31:02.383Z,3.53
2022-09-23T17:33:51.318Z,3.38
2022-09-23T17:36:41.199Z,3.58
2022-09-23T17:39:29.501Z,3.75
2022-09-23T17:42:20.397Z,3.53
2022-09-23T17:45:10.420Z,3.40
2022-09-23T17:47:58.249Z,3.40
2022-09-23T17:50:55.359Z,4.30
2022-09-23T17:53:46.616Z,3.90
2022-09-23T17:56:34.487Z,4.93
2022-09-23T17:59:22.450Z,5.10
2022-09-23T18:02:15.530Z,5.90
2022-09-23T18:05:03.579Z,6.45
2022-09-23T18:07:51.469Z,6.13
2022-09-23T18:10:40.452Z,6.60
2022-09-23T18:13:28.342Z,5.50
2022-09-23T18:16:16.194Z,5.70
2022-09-23T18:19:05.433Z,5.00
2022-09-23T18:21:55.820Z,5.20
2022-09-23T18:24:44.146Z,4.65
2022-09-23T18:27:36.124Z,4.57
2022-09-23T18:30:23.814Z,3.80
2022-09-23T18:33:11.578Z,4.43
2022-09-23T18:36:01.279Z,3.90
2022-09-23T18:38:49.563Z,3.60
2022-09-23T18:41:37.864Z,3.47
2022-09-23T18:44:27.279Z,3.60
2022-09-23T18:47:35.284Z,3.78
2022-09-23T18:50:40.444Z,4.87
2022-09-23T18:53:28.710Z,6.25
2022-09-23T18:56:18.673Z,5.20
2022-09-23T18:59:08.124Z,5.75
2022-09-23T19:01:57.977Z,6.73
2022-09-23T19:04:46.163Z,5.70
2022-09-23T19:07:34.434Z,5.93
2022-09-23T19:10:22.461Z,6.50
2022-09-23T19:13:10.426Z,7.43
2022-09-23T19:16:03.824Z,5.87
2022-09-23T19:18:53.333Z,5.67
2022-09-23T19:21:41.153Z,5.27
2022-09-23T19:24:28.797Z,5.77
2022-09-23T19:27:16.425Z,5.07
2022-09-23T19:30:07.252Z,4.73
2022-09-23T19:32:54.699Z,5.80
2022-09-23T19:35:49.684Z,3.63
2022-09-23T19:38:37.485Z,4.80
2022-09-23T19:41:26.058Z,3.50
2022-09-23T19:44:14.452Z,3.97
2022-09-23T19:47:01.757Z,4.20
2022-09-23T19:49:49.727Z,4.00
2022-09-23T19:52:39.016Z,3.90
2022-09-23T19:55:28.306Z,4.20
2022-09-23T19:58:15.970Z,4.60
2022-09-23T20:01:08.589Z,4.50
2022-09-23T20:03:56.477Z,5.80
2022-09-23T20:06:45.958Z,7.43
2022-09-23T20:09:36.099Z,6.50
2022-09-23T20:12:23.905Z,7.73
2022-09-23T20:15:12.985Z,5.20
2022-09-23T20:18:00.587Z,5.40
2022-09-23T20:20:55.579Z,6.60
2022-09-23T20:23:43.573Z,5.53
2022-09-23T20:26:50.570Z,5.40
2022-09-23T20:29:38.299Z,4.27
2022-09-23T20:32:29.500Z,5.40
2022-09-23T20:35:17.289Z,5.00
2022-09-23T20:38:08.073Z,6.10
2022-09-23T20:40:57.100Z,5.13
2022-09-23T20:43:47.494Z,5.33
2022-09-23T20:46:35.954Z,6.57
2022-09-23T20:49:23.654Z,5.63
2022-09-23T20:52:11.750Z,7.20
2022-09-23T20:55:00.037Z,5.40
2022-09-23T20:57:49.514Z,5.83
2022-09-23T21:00:38.876Z,6.27
2022-09-23T21:03:27.169Z,6.00
2022-09-23T21:06:17.621Z,8.13
2022-09-23T21:09:06.448Z,9.07
2022-09-23T21:11:54.459Z,6.43
2022-09-23T21:14:42.587Z,6.60
2022-09-23T21:17:31.783Z,7.80
2022-09-23T21:20:19.771Z,8.13
2022-09-23T21:23:07.446Z,8.80
2022-09-23T21:26:00.589Z,9.03
2022-09-23T21:28:49.657Z,8.60
2022-09-23T21:31:38.877Z,8.70
2022-09-23T21:34:30.092Z,8.57
2022-09-23T21:37:18.121Z,8.30
2022-09-23T21:40:23.564Z,10.47
2022-09-23T21:43:11.175Z,10.70
2022-09-23T21:46:00.025Z,10.27
2022-09-23T21:48:53.341Z,11.17
2022-09-23T21:51:42.794Z,11.10
2022-09-23T21:54:32.132Z,12.00
2022-09-23T21:57:20.027Z,10.73
2022-09-23T22:00:09.947Z,10.07
2022-09-23T22:02:57.618Z,12.10
2022-09-23T22:05:45.120Z,10.87
2022-09-23T22:08:36.902Z,11.23
2022-09-23T22:11:43.423Z,9.73
2022-09-23T22:14:31.183Z,11.30
2022-09-23T22:17:19.562Z,11.33
2022-09-23T22:20:08.327Z,10.43
2022-09-23T22:22:56.707Z,10.10
2022-09-23T22:25:45.940Z,11.13
2022-09-23T22:28:51.381Z,12.03
2022-09-23T22:31:57.080Z,11.60
2022-09-23T22:34:49.990Z,10.77
2022-09-23T22:37:39.369Z,10.93
2022-09-23T22:40:27.120Z,10.60
2022-09-23T22:43:16.275Z,12.73
2022-09-23T22:46:04.444Z,11.63
2022-09-23T22:48:53.342Z,15.60
2022-09-23T22:51:41.744Z,16.17
2022-09-23T22:54:33.665Z,12.60
2022-09-23T22:57:21.994Z,12.17
2022-09-23T23:00:13.714Z,14.60
2022-09-23T23:03:01.369Z,12.47
2022-09-23T23:05:49.337Z,14.00
2022-09-23T23:08:38.300Z,13.53
2022-09-23T23:11:26.247Z,13.10
2022-09-23T23:14:14.969Z,12.70
2022-09-23T23:17:07.366Z,14.27
2022-09-23T23:19:55.460Z,14.20
2022-09-23T23:22:43.138Z,13.63
2022-09-23T23:25:30.573Z,13.27
2022-09-23T23:28:18.218Z,13.27
2022-09-23T23:31:06.597Z,15.93
2022-09-23T23:33:55.830Z,12.57
2022-09-23T23:36:44.271Z,13.83
2022-09-23T23:39:31.756Z,12.73
2022-09-23T23:42:19.601Z,13.73
2022-09-23T23:45:08.920Z,14.67
2022-09-23T23:47:57.271Z,13.60
2022-09-23T23:50:53.976Z,13.27
2022-09-23T23:53:42.829Z,15.03
2022-09-23T23:56:32.031Z,11.27
2022-09-23T23:59:20.978Z,12.93
